Farmingdale, New York
Current Conditions -  °F | °C
As of 3:53 PM on Saturday 20 Dec 2014 (Local Time) from KFRG Reporting Station
Overcast Overcast  
Wind Chill:   Ceiling: 2700
Heat Index:   Visibility: 10mi
Dew Point: -6°   Wind: 3mph
Humidity: 64%   Direction: 240°WSW
Pressure: 30.27"   Gusts: NA
Location:  40.73°N, 73.44°W
Report Text: KFRG 202053Z 24003KT 10SM OVC027 00/M06 A3027 RMK AO2 SLP250 T00001061 53002
Loading
Personal Weather Stations






























Interactive Weather Map New forecast layout! Learn more

10-Day Weather Forecast

Advertisements
Track Severe Weather on mobile